Time;durP1;ratioP1;P1;durP2;ratioP2;P2;SDS_P1;SDS_P2;PMS_P1;PMS_P2;Temp;Humidity;BMP_temperature;BMP_pressure;BME280_temperature;BME280_humidity;BME280_pressure;Samples;Min_cycle;Max_cycle;Signal;HPM_P1;HPM_P2
2024/04/12 00:02:08;;;;;;;16.80;12.30;;;;;;;14.65;100.00;101537.70;105633;1257;72713;-78
2024/04/12 00:04:36;;;;;;;23.20;14.60;;;;;;;14.63;100.00;101538.02;105635;1260;61680;-76
2024/04/12 00:07:13;;;;;;;19.40;13.70;;;;;;;14.62;100.00;101539.48;105746;1257;60314;-75
2024/04/12 00:09:40;;;;;;;18.00;13.00;;;;;;;14.60;100.00;101538.56;105676;1256;73626;-76
2024/04/12 00:12:07;;;;;;;15.60;12.10;;;;;;;14.56;100.00;101540.09;105611;1259;62738;-77
2024/04/12 00:14:33;;;;;;;20.80;13.60;;;;;;;14.50;100.00;101541.98;105566;1259;60424;-74
2024/04/12 00:17:01;;;;;;;17.40;13.00;;;;;;;14.46;100.00;101540.79;105649;1260;61764;-76
2024/04/12 00:19:30;;;;;;;15.00;12.20;;;;;;;14.44;100.00;101539.32;105879;1257;60530;-74
2024/04/12 00:21:59;;;;;;;17.80;12.40;;;;;;;14.44;100.00;101539.70;105894;1251;73683;-78
2024/04/12 00:24:29;;;;;;;14.90;11.60;;;;;;;14.44;100.00;101543.73;106068;1251;63783;-74
2024/04/12 00:26:56;;;;;;;16.90;11.90;;;;;;;14.44;100.00;101544.42;105914;1251;72603;-74
2024/04/12 00:29:30;;;;;;;20.90;13.50;;;;;;;14.44;100.00;101543.18;105934;1254;61985;-76
2024/04/12 00:32:03;;;;;;;18.50;14.00;;;;;;;14.45;100.00;101542.06;105841;1251;60402;-75
2024/04/12 00:34:37;;;;;;;19.30;12.70;;;;;;;14.46;100.00;101541.33;105931;1251;73889;-75
2024/04/12 00:37:07;;;;;;;20.00;13.00;;;;;;;14.46;100.00;101544.12;105894;1250;62971;-76
2024/04/12 00:39:38;;;;;;;18.10;13.60;;;;;;;14.44;100.00;101542.00;105961;1251;72813;-76
2024/04/12 00:42:07;;;;;;;22.20;13.50;;;;;;;14.42;100.00;101540.52;106096;1253;61867;-75
2024/04/12 00:44:41;;;;;;;19.60;12.90;;;;;;;14.39;100.00;101540.20;106081;1250;60347;-74
2024/04/12 00:47:10;;;;;;;19.50;12.80;;;;;;;14.36;100.00;101545.67;106058;1253;73733;-75
2024/04/12 00:49:39;;;;;;;22.50;13.80;;;;;;;14.33;100.00;101540.55;106019;1251;62328;-77
2024/04/12 00:52:12;;;;;;;18.60;12.30;;;;;;;14.30;100.00;101538.80;105839;1255;72436;-77
2024/04/12 00:54:42;;;;;;;16.70;12.30;;;;;;;14.25;100.00;101538.02;105864;1253;61796;-75
2024/04/12 00:57:10;;;;;;;18.80;13.30;;;;;;;14.21;100.00;101537.40;105880;1251;60329;-78
2024/04/12 00:59:37;;;;;;;18.20;13.00;;;;;;;14.17;100.00;101540.96;106027;1253;73683;-77
2024/04/12 01:02:08;;;;;;;22.30;14.10;;;;;;;14.10;100.00;101537.52;105989;1253;63858;-77
2024/04/12 01:04:36;;;;;;;21.70;14.30;;;;;;;14.05;100.00;101536.23;106022;1251;72725;-77
2024/04/12 01:07:06;;;;;;;21.30;13.80;;;;;;;14.02;100.00;101535.73;106006;1253;61755;-75
2024/04/12 01:09:35;;;;;;;21.10;14.50;;;;;;;14.00;100.00;101535.71;105960;1253;60367;-75
2024/04/12 01:12:02;;;;;;;20.10;14.30;;;;;;;13.98;100.00;101537.73;105922;1253;73720;-75
2024/04/12 01:14:30;;;;;;;19.00;13.90;;;;;;;13.97;100.00;101534.13;105953;1253;63941;-75
2024/04/12 01:16:56;;;;;;;26.10;18.30;;;;;;;13.95;100.00;101537.20;105934;1253;72337;-76
2024/04/12 01:19:23;;;;;;;24.80;15.50;;;;;;;13.94;100.00;101532.71;105998;1253;62556;-76
2024/04/12 01:21:51;;;;;;;20.80;15.30;;;;;;;13.93;100.00;101531.73;105985;1250;60523;-74
2024/04/12 01:24:18;;;;;;;22.80;15.70;;;;;;;13.91;100.00;101529.20;105994;1251;73507;-75
2024/04/12 01:26:45;;;;;;;29.60;13.90;;;;;;;13.89;100.00;101527.35;105977;1253;63818;-75
2024/04/12 01:29:13;;;;;;;26.00;15.10;;;;;;;13.87;100.00;101525.71;105944;1251;72504;-77
2024/04/12 01:31:41;;;;;;;22.10;15.00;;;;;;;13.85;100.00;101523.02;105957;1251;61955;-76
2024/04/12 01:34:13;;;;;;;20.00;14.80;;;;;;;13.84;100.00;101524.13;106002;1253;60514;-78
2024/04/12 01:36:42;;;;;;;26.90;15.70;;;;;;;13.84;100.00;101524.48;106000;1253;73696;-77
2024/04/12 01:39:11;;;;;;;25.50;15.10;;;;;;;13.83;100.00;101521.77;106032;1253;63766;-76
2024/04/12 01:41:38;;;;;;;21.40;14.60;;;;;;;13.82;100.00;101517.77;105944;1251;72712;-76
2024/04/12 01:44:06;;;;;;;21.30;13.30;;;;;;;13.82;100.00;101520.41;105965;1250;61967;-75
2024/04/12 01:46:34;;;;;;;22.00;14.10;;;;;;;13.82;100.00;101520.75;105975;1251;60519;-76
2024/04/12 01:49:05;;;;;;;23.70;15.10;;;;;;;13.82;100.00;101520.20;106050;1253;73854;-75
2024/04/12 01:51:35;;;;;;;27.40;16.00;;;;;;;13.83;100.00;101518.39;105899;1253;63864;-76
2024/04/12 01:54:17;;;;;;;24.70;15.10;;;;;;;13.84;100.00;101521.31;105881;1251;71419;-76
2024/04/12 01:56:47;;;;;;;23.80;15.20;;;;;;;13.85;100.00;101522.51;105940;1253;61694;-76
2024/04/12 01:59:21;;;;;;;25.60;17.40;;;;;;;13.86;100.00;101522.98;105863;1251;60542;-74
2024/04/12 02:01:49;;;;;;;;;;;;;;;13.86;100.00;101520.65;105854;1253;73545;-76
2024/04/12 02:04:20;;;;;;;20.00;14.90;;;;;;;13.87;100.00;101517.63;105854;1251;63973;-75
2024/04/12 02:06:48;;;;;;;25.60;13.60;;;;;;;13.89;100.00;101519.28;105887;1250;71489;-78
2024/04/12 02:09:16;;;;;;;18.70;14.30;;;;;;;13.91;100.00;101526.05;105802;1253;61888;-76
2024/04/12 02:11:46;;;;;;;17.50;12.10;;;;;;;13.92;100.00;101529.64;105926;1251;60494;-77
2024/04/12 02:14:14;;;;;;;16.60;12.90;;;;;;;13.94;100.00;101527.95;105961;1253;72346;-75
2024/04/12 02:16:42;;;;;;;19.20;13.40;;;;;;;13.95;100.00;101530.89;105995;1253;63664;-77
2024/04/12 02:19:13;;;;;;;16.30;13.10;;;;;;;13.97;100.00;101533.73;105951;1250;60431;-76
2024/04/12 02:21:41;;;;;;;20.60;11.60;;;;;;;13.98;100.00;101533.83;105961;1253;61771;-78
2024/04/12 02:24:11;;;;;;;16.10;11.60;;;;;;;14.00;100.00;101533.05;105886;1251;60315;-77
2024/04/12 02:26:42;;;;;;;15.10;10.80;;;;;;;14.01;100.00;101536.16;105955;1253;73639;-77
2024/04/12 02:29:09;;;;;;;18.70;11.70;;;;;;;14.02;100.00;101533.96;105911;1254;63839;-76
2024/04/12 02:31:35;;;;;;;15.20;11.50;;;;;;;14.03;100.00;101535.33;105916;1251;71660;-76
2024/04/12 02:34:04;;;;;;;16.70;11.90;;;;;;;14.04;100.00;101538.05;105963;1253;60561;-77
2024/04/12 02:36:32;;;;;;;16.80;12.00;;;;;;;14.05;100.00;101540.09;106013;1250;60414;-77
2024/04/12 02:39:04;;;;;;;16.70;11.50;;;;;;;14.06;100.00;101538.80;107762;1251;73645;-75
2024/04/12 02:41:37;;;;;;;15.00;11.50;;;;;;;14.07;100.00;101538.95;109452;1249;62512;-75
2024/04/12 02:44:06;;;;;;;15.80;10.80;;;;;;;14.08;100.00;101544.48;108587;1250;71129;-78
2024/04/12 02:46:33;;;;;;;14.80;11.90;;;;;;;14.10;100.00;101543.87;106387;1253;61995;-79
2024/04/12 02:49:04;;;;;;;18.70;10.90;;;;;;;14.11;100.00;101544.52;106038;1250;60431;-80
2024/04/12 02:51:31;;;;;;;18.00;11.40;;;;;;;14.14;100.00;101548.25;106016;1253;73852;-79
2024/04/12 02:53:58;;;;;;;13.90;10.50;;;;;;;14.15;100.00;101549.92;106037;1253;63894;-77
2024/04/12 02:56:26;;;;;;;17.40;10.20;;;;;;;14.16;100.00;101550.04;106007;1251;72498;-78
2024/04/12 02:58:52;;;;;;;16.10;10.00;;;;;;;14.17;100.00;101548.02;106092;1251;61770;-76
2024/04/12 03:01:21;;;;;;;20.40;10.10;;;;;;;14.19;100.00;101553.54;106074;1251;60450;-78
2024/04/12 03:03:50;;;;;;;12.90;9.30;;;;;;;14.21;100.00;101554.80;106119;1253;73846;-78
2024/04/12 03:06:20;;;;;;;12.30;9.60;;;;;;;14.24;100.00;101551.13;106113;1251;63728;-78
2024/04/12 03:08:50;;;;;;;19.50;10.80;;;;;;;14.26;100.00;101554.00;106051;1251;71465;-77
2024/04/12 03:11:21;;;;;;;14.90;8.40;;;;;;;14.28;100.00;101554.90;105930;1253;61993;-79
2024/04/12 03:13:50;;;;;;;19.00;9.50;;;;;;;14.32;100.00;101553.65;106141;1253;60300;-79
2024/04/12 03:16:20;;;;;;;12.00;9.60;;;;;;;14.34;100.00;101552.80;106131;1253;73838;-76
2024/04/12 03:18:51;;;;;;;16.40;10.20;;;;;;;14.35;100.00;101557.66;105972;1251;62351;-78
2024/04/12 03:21:21;;;;;;;15.30;9.40;;;;;;;14.37;100.00;101558.63;105907;1251;72713;-79
2024/04/12 03:23:48;;;;;;;15.20;9.70;;;;;;;14.38;100.00;101556.96;105893;1253;61333;-77
2024/04/12 03:26:18;;;;;;;11.20;9.00;;;;;;;14.40;100.00;101552.45;105992;1250;61118;-81
2024/04/12 03:28:45;;;;;;;12.80;9.50;;;;;;;14.42;100.00;101557.77;106050;1253;74719;-79
2024/04/12 03:31:12;;;;;;;12.40;9.20;;;;;;;14.45;100.00;101561.25;106061;1254;63912;-78
2024/04/12 03:33:42;;;;;;;15.50;8.90;;;;;;;14.49;100.00;101559.63;105829;1251;72677;-79
2024/04/12 03:36:26;;;;;;;11.20;8.20;;;;;;;14.52;100.00;101558.53;105956;1255;61810;-79
2024/04/12 03:39:24;;;;;;;9.10;7.70;;;;;;;14.56;100.00;101561.35;106075;1251;61228;-77
2024/04/12 03:41:43;;;;;;;11.80;7.20;;;;;;;14.59;100.00;101557.14;106551;1250;74580;-75
2024/04/12 03:44:11;;;;;;;10.00;7.30;;;;;;;14.63;100.00;101556.14;107028;1253;62370;-79
2024/04/12 03:46:41;;;;;;;7.20;6.50;;;;;;;14.67;100.00;101555.01;106152;1251;72586;-75
2024/04/12 03:49:13;;;;;;;10.60;7.40;;;;;;;14.73;100.00;101558.22;106125;1251;61333;-75
2024/04/12 03:51:44;;;;;;;11.60;6.90;;;;;;;14.77;100.00;101556.51;106024;1251;61342;-78
2024/04/12 03:54:18;;;;;;;11.40;6.60;;;;;;;14.81;100.00;101553.11;106023;1250;74590;-79
2024/04/12 03:56:49;;;;;;;13.20;7.30;;;;;;;14.86;100.00;101553.69;106078;1253;62326;-77
2024/04/12 03:59:21;;;;;;;11.90;7.10;;;;;;;14.88;100.00;101555.98;106052;1249;72636;-79
2024/04/12 04:01:47;;;;;;;8.40;5.70;;;;;;;14.91;100.00;101558.77;106014;1253;62480;-78
2024/04/12 04:04:17;;;;;;;9.50;5.80;;;;;;;14.95;100.00;101558.58;106020;1250;61288;-77
2024/04/12 04:06:54;;;;;;;14.70;8.10;;;;;;;14.97;100.00;101559.13;106088;1251;72413;-76
2024/04/12 04:09:22;;;;;;;10.30;9.00;;;;;;;15.00;100.00;101562.84;105906;1253;63901;-79
2024/04/12 04:11:52;;;;;;;10.20;5.90;;;;;;;15.02;100.00;101559.68;105884;1250;72525;-80
2024/04/12 04:14:20;;;;;;;12.90;6.90;;;;;;;15.07;100.00;101561.46;106005;1251;61671;-77
2024/04/12 04:16:49;;;;;;;9.10;5.10;;;;;;;15.12;100.00;101560.27;105920;1250;61308;-78
2024/04/12 04:19:20;;;;;;;9.80;4.90;;;;;;;15.17;100.00;101560.34;105960;1253;74389;-78
2024/04/12 04:21:47;;;;;;;8.90;5.70;;;;;;;15.22;100.00;101559.64;105947;1253;63018;-78
2024/04/12 04:24:14;;;;;;;8.90;5.20;;;;;;;15.28;100.00;101559.07;105950;1251;72736;-78
2024/04/12 04:26:41;;;;;;;12.40;5.40;;;;;;;15.33;100.00;101558.94;105977;1253;62397;-77
2024/04/12 04:29:11;;;;;;;13.00;5.30;;;;;;;15.39;100.00;101561.06;106007;1253;61138;-79
2024/04/12 04:31:47;;;;;;;8.30;4.50;;;;;;;15.44;100.00;101562.14;105955;1251;73305;-75
2024/04/12 04:34:14;;;;;;;11.20;4.70;;;;;;;15.47;100.00;101564.20;105956;1251;63970;-75
2024/04/12 04:36:41;;;;;;;8.40;5.10;;;;;;;15.52;100.00;101560.31;105950;1251;72656;-75
2024/04/12 04:39:08;;;;;;;12.50;4.70;;;;;;;15.61;100.00;101561.21;105967;1253;61882;-76
2024/04/12 04:41:35;;;;;;;4.20;3.90;;;;;;;15.67;100.00;101555.27;105994;1251;61285;-76
2024/04/12 04:44:02;;;;;;;7.70;3.90;;;;;;;15.77;100.00;101559.77;106078;1253;74523;-80
2024/04/12 04:46:29;;;;;;;9.90;4.50;;;;;;;15.89;100.00;101558.82;106030;1253;63753;-76
2024/04/12 04:48:57;;;;;;;12.40;4.30;;;;;;;16.02;100.00;101560.02;106047;1253;70653;-77
2024/04/12 04:51:25;;;;;;;10.60;4.50;;;;;;;16.17;100.00;101556.39;105997;1251;62070;-77
2024/04/12 04:53:52;;;;;;;10.40;4.50;;;;;;;16.40;100.00;101556.57;106071;1250;61276;-79
2024/04/12 04:56:24;;;;;;;13.10;4.20;;;;;;;16.74;100.00;101559.17;106118;1251;74857;-76
2024/04/12 04:58:51;;;;;;;7.60;4.00;;;;;;;17.20;100.00;101556.94;106454;1251;64084;-76
2024/04/12 05:01:18;;;;;;;10.50;3.70;;;;;;;17.70;100.00;101554.77;107753;1254;74671;-76
2024/04/12 05:03:49;;;;;;;6.30;3.80;;;;;;;18.22;100.00;101553.34;107105;1253;62898;-78
2024/04/12 05:06:24;;;;;;;12.00;4.60;;;;;;;18.73;100.00;101557.53;106146;1250;61505;-76
2024/04/12 05:08:55;;;;;;;8.00;3.20;;;;;;;19.18;100.00;101554.93;106188;1251;72700;-80
2024/04/12 05:11:23;;;;;;;7.30;4.30;;;;;;;19.54;100.00;101552.73;105999;1253;64206;-80
2024/04/12 05:13:55;;;;;;;8.30;4.00;;;;;;;19.76;100.00;101549.55;106021;1251;71459;-80
2024/04/12 05:16:22;;;;;;;11.60;3.40;;;;;;;19.88;100.00;101547.27;106039;1254;61138;-79
2024/04/12 05:18:49;;;;;;;14.90;3.80;;;;;;;20.10;100.00;101543.60;106404;1251;61116;-78
2024/04/12 05:21:16;;;;;;;8.20;4.00;;;;;;;20.47;100.00;101546.69;106766;1253;73502;-78
2024/04/12 05:23:44;;;;;;;8.70;4.10;;;;;;;20.90;94.26;101545.02;106178;1253;64985;-79
2024/04/12 05:26:11;;;;;;;11.70;3.90;;;;;;;21.32;87.13;101546.41;106008;1251;72506;-79
2024/04/12 05:28:38;;;;;;;6.60;3.20;;;;;;;21.73;81.51;101543.90;106058;1253;61228;-79
2024/04/12 05:31:13;;;;;;;6.50;3.80;;;;;;;22.12;77.80;101541.86;106250;1251;61221;-77
2024/04/12 05:33:42;;;;;;;10.70;4.00;;;;;;;22.48;70.43;101540.47;106522;1251;73394;-77
2024/04/12 05:36:14;;;;;;;13.90;3.70;;;;;;;22.81;65.57;101546.86;109831;1250;63278;-78
2024/04/12 05:38:40;;;;;;;14.10;3.80;;;;;;;23.10;61.83;101542.15;108344;1250;71651;-80
2024/04/12 05:41:09;;;;;;;7.20;3.20;;;;;;;23.38;58.77;101538.45;105989;1255;61349;-80
2024/04/12 05:43:38;;;;;;;7.20;3.60;;;;;;;23.65;56.58;101533.63;106044;1251;61387;-80
2024/04/12 05:46:05;;;;;;;8.70;3.70;;;;;;;23.88;55.78;101536.16;105970;1251;74530;-78
2024/04/12 05:48:36;;;;;;;8.20;3.60;;;;;;;24.16;55.08;101538.98;106069;1253;64007;-80
2024/04/12 05:51:03;;;;;;;4.80;3.20;;;;;;;24.48;54.04;101539.63;106083;1252;72961;-77
2024/04/12 05:53:30;;;;;;;7.90;3.30;;;;;;;24.75;51.64;101537.34;106012;1253;62649;-79
2024/04/12 05:58:44;;;;;;;11.20;3.70;;;;;;;25.09;48.27;101546.19;106039;1253;74056;-80
2024/04/12 06:01:11;;;;;;;10.10;3.60;;;;;;;25.20;47.88;101545.55;106134;1251;62910;-77
2024/04/12 06:03:42;;;;;;;10.00;3.70;;;;;;;25.38;47.57;101547.23;106093;1254;73924;-81
2024/04/12 06:06:12;;;;;;;13.30;3.30;;;;;;;25.59;46.26;101541.66;105990;1251;61356;-79
2024/04/12 06:21:04;;;;;;;10.00;3.90;;;;;;;26.80;42.41;101539.02;102818;1292;600992;-81
2024/04/12 06:23:34;;;;;;;9.60;4.50;;;;;;;26.95;42.08;101540.59;104961;1270;59763;-83
2024/04/12 06:26:03;;;;;;;11.90;3.80;;;;;;;27.20;41.40;101533.79;104910;1264;59732;-79
2024/04/12 06:28:30;;;;;;;7.60;4.30;;;;;;;27.49;40.79;101523.95;104868;1264;73782;-81
2024/04/12 06:30:59;;;;;;;8.20;4.00;;;;;;;27.70;39.92;101520.27;105284;1258;65654;-81
2024/04/12 06:33:28;;;;;;;10.00;4.10;;;;;;;27.83;38.14;101516.55;105468;1262;72298;-82
2024/04/12 06:36:04;;;;;;;15.70;4.50;;;;;;;27.91;38.25;101517.93;105513;1260;61202;-82
2024/04/12 06:38:32;;;;;;;8.90;3.90;;;;;;;28.02;37.60;101517.48;105577;1260;59547;-82
2024/04/12 06:41:03;;;;;;;8.80;3.50;;;;;;;28.25;37.08;101519.05;105644;1261;72693;-80
2024/04/12 06:43:33;;;;;;;8.50;4.00;;;;;;;28.50;36.19;101521.98;105657;1254;63715;-80
2024/04/12 06:46:08;;;;;;;5.20;3.20;;;;;;;28.75;35.68;101520.15;105370;1260;72567;-81
2024/04/12 06:48:36;;;;;;;7.90;3.00;;;;;;;28.98;35.21;101521.10;105393;1261;60598;-79
2024/04/12 06:51:11;;;;;;;8.20;3.60;;;;;;;29.17;34.83;101518.76;105333;1260;60946;-82
2024/04/12 06:53:44;;;;;;;9.00;3.80;;;;;;;29.35;34.21;101522.98;105390;1255;74954;-82
2024/04/12 06:56:17;;;;;;;11.10;4.20;;;;;;;29.46;34.12;101520.34;105472;1261;63446;-82
2024/04/12 06:58:54;;;;;;;6.20;3.90;;;;;;;29.65;34.28;101517.48;105589;1259;75008;-81
2024/04/12 07:01:25;;;;;;;5.50;3.40;;;;;;;29.83;33.56;101510.73;105760;1258;60539;-82
2024/04/12 07:03:56;;;;;;;12.40;3.90;;;;;;;29.97;32.70;101515.63;105583;1258;60587;-81
2024/04/12 07:06:25;;;;;;;6.10;3.50;;;;;;;30.01;31.99;101513.91;105852;1254;73653;-83
2024/04/12 07:08:54;;;;;;;8.90;3.80;;;;;;;30.04;32.26;101513.05;105851;1254;65672;-83
2024/04/12 07:11:24;;;;;;;8.60;4.40;;;;;;;30.10;32.21;101516.51;105830;1261;73209;-80
2024/04/12 07:13:53;;;;;;;11.90;3.90;;;;;;;30.14;32.30;101515.52;105701;1259;60448;-80
2024/04/12 07:16:21;;;;;;;8.80;3.70;;;;;;;30.15;32.37;101515.25;105774;1259;61504;-81
2024/04/12 07:18:50;;;;;;;15.70;4.20;;;;;;;30.20;32.24;101511.02;105794;1260;75034;-82
2024/04/12 07:21:22;;;;;;;8.20;4.20;;;;;;;30.41;31.73;101511.52;105758;1253;62102;-84
2024/04/12 07:23:50;;;;;;;11.40;4.40;;;;;;;30.60;31.52;101513.48;105610;1260;72918;-80
2024/04/12 07:26:25;;;;;;;11.60;4.20;;;;;;;30.79;31.05;101509.99;105588;1260;61138;-80
2024/04/12 07:29:00;;;;;;;9.20;3.50;;;;;;;30.90;31.07;101507.75;105683;1260;60445;-83
2024/04/12 07:31:30;;;;;;;10.70;3.80;;;;;;;31.05;30.53;101509.37;105626;1254;74305;-83
2024/04/12 07:34:01;;;;;;;8.60;4.30;;;;;;;31.15;30.24;101507.54;105815;1259;62771;-82
2024/04/12 07:36:30;;;;;;;7.10;4.30;;;;;;;31.21;29.66;101510.51;105563;1260;74914;-80
2024/04/12 07:39:01;;;;;;;8.70;3.60;;;;;;;31.25;29.72;101508.31;105505;1260;60435;-81
2024/04/12 07:41:37;;;;;;;12.30;4.20;;;;;;;31.30;29.48;101507.48;105560;1254;60524;-79
2024/04/12 07:44:05;;;;;;;12.80;4.30;;;;;;;31.45;29.95;101503.49;105692;1260;74073;-82
2024/04/12 07:46:33;;;;;;;13.50;4.30;;;;;;;31.59;29.90;101495.56;105493;1254;64954;-81
2024/04/12 07:49:02;;;;;;;4.90;3.20;;;;;;;31.68;29.44;101493.42;105567;1261;72481;-82
2024/04/12 07:51:39;;;;;;;6.20;3.30;;;;;;;31.78;29.11;101491.61;105770;1260;60577;-80
2024/04/12 07:54:11;;;;;;;10.70;3.60;;;;;;;31.93;29.14;101490.71;105603;1254;60439;-81
2024/04/12 07:56:43;;;;;;;7.50;3.10;;;;;;;32.02;28.74;101492.30;105706;1254;73503;-84
2024/04/12 07:59:13;;;;;;;8.80;3.00;;;;;;;31.92;28.24;101489.47;105738;1260;63618;-80
2024/04/12 08:01:48;;;;;;;10.40;4.10;;;;;;;31.60;27.96;101492.80;105481;1257;72481;-83
2024/04/12 08:04:22;;;;;;;36.80;4.90;;;;;;;31.25;28.76;101485.08;105484;1253;60840;-84
2024/04/12 08:06:57;;;;;;;9.90;4.30;;;;;;;31.16;29.08;101486.12;105826;1260;62948;-80
2024/04/12 08:09:34;;;;;;;7.70;3.00;;;;;;;31.23;28.96;101483.27;105860;1256;75959;-81
2024/04/12 08:12:17;;;;;;;9.90;3.00;;;;;;;31.33;29.19;101481.07;105814;1253;63895;-83
2024/04/12 08:14:52;;;;;;;9.20;3.30;;;;;;;31.35;28.66;101480.20;105882;1257;73036;-81
2024/04/12 08:17:27;;;;;;;27.10;5.30;;;;;;;31.28;28.60;101479.20;105723;1257;60486;-82
2024/04/12 08:20:12;;;;;;;;;;;;;;;31.18;28.75;101481.44;105800;1256;60432;-80
2024/04/12 08:22:42;;;;;;;8.40;2.50;;;;;;;31.07;28.83;101476.95;105825;1256;74482;-80
2024/04/12 08:25:17;;;;;;;7.00;2.60;;;;;;;31.12;28.36;101477.77;105738;1256;63805;-82
2024/04/12 08:27:46;;;;;;;6.70;2.90;;;;;;;31.15;28.09;101473.86;105707;1258;72524;-83
2024/04/12 08:30:14;;;;;;;7.60;2.90;;;;;;;31.35;28.17;101469.48;105664;1251;61876;-83
2024/04/12 08:32:48;;;;;;;6.20;2.30;;;;;;;31.57;27.72;101473.16;105866;1255;60261;-83
2024/04/12 08:35:21;;;;;;;6.60;2.00;;;;;;;31.81;27.45;101473.24;105877;1251;75443;-82
2024/04/12 08:37:51;;;;;;;2.10;1.80;;;;;;;32.17;27.20;101471.20;105871;1250;64984;-82
2024/04/12 08:40:24;;;;;;;6.00;2.40;;;;;;;32.45;26.63;101468.17;105943;1254;72508;-84
2024/04/12 08:42:55;;;;;;;3.70;2.00;;;;;;;32.77;26.50;101469.98;106004;1257;60431;-82
2024/04/12 08:45:30;;;;;;;6.30;2.30;;;;;;;33.07;26.51;101472.41;106091;1251;60510;-83
2024/04/12 08:48:06;;;;;;;7.00;2.60;;;;;;;33.32;25.72;101465.02;105895;1256;75270;-83
2024/04/12 08:50:35;;;;;;;9.10;2.90;;;;;;;33.44;25.74;101462.23;105879;1258;62275;-81
2024/04/12 08:53:11;;;;;;;4.70;2.20;;;;;;;33.60;25.33;101462.89;105952;1252;72976;-79
2024/04/12 08:55:44;;;;;;;4.30;2.20;;;;;;;33.76;25.13;101459.47;105997;1256;60607;-80
2024/04/12 08:58:20;;;;;;;10.30;2.80;;;;;;;33.81;24.66;101457.38;105692;1255;60413;-81
2024/04/12 09:00:47;;;;;;;7.80;2.50;;;;;;;33.83;24.82;101458.70;105947;1257;75024;-78
2024/04/12 09:03:25;;;;;;;4.90;1.80;;;;;;;33.81;24.77;101455.27;105812;1251;65921;-83
2024/04/12 09:05:56;;;;;;;5.90;3.20;;;;;;;33.72;24.08;101451.57;105896;1256;71225;-81
2024/04/12 09:08:28;;;;;;;7.30;1.70;;;;;;;33.59;24.28;101446.21;105988;1255;60435;-79
2024/04/12 09:11:00;;;;;;;6.20;2.00;;;;;;;33.54;24.68;101443.69;105965;1257;61175;-81
2024/04/12 09:13:33;;;;;;;7.60;1.90;;;;;;;33.56;24.11;101441.36;105913;1250;73973;-80
2024/04/12 09:16:03;;;;;;;4.20;1.40;;;;;;;33.52;24.73;101442.74;105995;1256;63965;-79
2024/04/12 09:18:44;;;;;;;6.90;2.70;;;;;;;33.55;24.30;101443.02;105705;1256;72807;-81
2024/04/12 09:21:24;;;;;;;8.20;2.30;;;;;;;33.50;24.38;101440.14;105776;1257;60523;-79
2024/04/12 09:23:56;;;;;;;5.80;1.80;;;;;;;33.44;24.24;101440.06;105971;1250;60489;-82
2024/04/12 09:26:24;;;;;;;5.40;1.70;;;;;;;33.40;24.20;101437.60;105754;1251;75837;-82
2024/04/12 09:29:01;;;;;;;6.10;1.50;;;;;;;33.39;24.23;101435.30;105903;1257;66034;-81
2024/04/12 09:34:29;;;;;;;7.70;1.80;;;;;;;33.20;24.62;101434.42;106057;1257;61357;-82
2024/04/12 09:37:02;;;;;;;;;;;;;;;33.08;24.37;101437.29;105936;1252;60346;-80
2024/04/12 09:39:57;;;;;;;16.10;2.30;;;;;;;32.87;24.35;101428.57;105804;1250;74130;-79
2024/04/12 09:42:18;;;;;;;5.60;2.00;;;;;;;32.70;24.74;101427.50;105829;1257;64890;-79
2024/04/12 09:44:49;;;;;;;4.70;1.50;;;;;;;32.68;24.28;101426.15;105802;1255;71846;-79
2024/04/12 10:37:30;;;;;;;3.20;1.50;;;;;;;30.55;25.69;101395.04;105926;1250;65514;-82
2024/04/12 10:39:58;;;;;;;4.10;1.30;;;;;;;30.55;26.07;101391.32;105744;1251;74906;-79
2024/04/12 10:42:26;;;;;;;7.10;1.20;;;;;;;30.63;25.95;101387.77;105830;1257;61493;-79
2024/04/12 10:44:56;;;;;;;7.80;1.40;;;;;;;30.79;25.60;101388.11;105853;1251;62476;-78
2024/04/12 10:47:23;;;;;;;2.20;1.50;;;;;;;30.93;25.52;101384.60;105794;1250;77222;-78
2024/04/12 10:49:51;;;;;;;3.60;1.30;;;;;;;31.08;25.32;101381.30;105966;1251;63619;-80
2024/04/12 10:52:28;;;;;;;5.70;1.90;;;;;;;31.18;25.30;101380.30;105855;1253;73646;-78
2024/04/12 10:55:00;;;;;;;4.80;1.10;;;;;;;31.21;24.84;101378.47;106004;1256;61224;-80
2024/04/12 10:57:29;;;;;;;4.30;1.40;;;;;;;31.09;24.97;101377.69;105845;1250;62224;-80
2024/04/12 11:00:00;;;;;;;6.00;1.30;;;;;;;31.02;25.04;101370.39;105976;1256;76565;-78
2024/04/12 11:02:30;;;;;;;5.40;1.50;;;;;;;30.97;25.10;101368.35;105936;1251;65763;-84
2024/04/12 11:07:52;;;;;;;5.50;1.60;;;;;;;30.79;24.87;101364.48;105760;1250;62088;-80
2024/04/12 11:10:24;;;;;;;2.50;1.30;;;;;;;30.68;25.29;101366.15;105673;1255;61357;-81
2024/04/12 11:12:59;;;;;;;5.00;1.70;;;;;;;30.64;25.10;101366.09;105808;1256;75783;-80
2024/04/12 11:31:14;;;;;;;7.00;1.90;;;;;;;30.54;25.06;101335.94;105034;1269;61424;-80
2024/04/12 11:33:52;;;;;;;5.60;2.00;;;;;;;30.43;24.23;101333.08;105226;1264;61302;-81
2024/04/12 11:36:23;;;;;;;6.00;1.70;;;;;;;30.20;24.89;101338.52;105533;1263;74608;-81
2024/04/12 11:38:53;;;;;;;6.30;1.80;;;;;;;30.12;25.32;101332.20;105614;1260;65150;-81
2024/04/12 11:41:24;;;;;;;4.00;1.50;;;;;;;30.09;25.31;101334.40;105584;1257;204771;-79
2024/04/12 11:43:52;;;;;;;5.00;1.90;;;;;;;30.03;25.36;101330.14;105873;1255;59640;-82
2024/04/12 11:46:23;;;;;;;3.90;2.30;;;;;;;29.95;25.55;101326.87;105811;1257;60052;-79
2024/04/12 11:48:53;;;;;;;8.30;1.60;;;;;;;29.85;25.51;101324.95;105857;1254;74158;-81
2024/04/12 11:51:21;;;;;;;6.50;1.30;;;;;;;29.65;25.07;101320.48;105796;1254;62970;-78
2024/04/12 11:53:50;;;;;;;7.90;1.80;;;;;;;29.40;25.11;101320.39;105814;1257;73771;-81
2024/04/12 11:56:17;;;;;;;6.40;1.70;;;;;;;29.19;24.79;101316.61;105927;1252;60538;-79
2024/04/12 11:58:44;;;;;;;4.00;1.30;;;;;;;29.02;25.24;101310.52;106154;1254;60417;-79
2024/04/12 12:01:13;;;;;;;5.60;1.30;;;;;;;28.79;25.25;101307.23;106113;1251;74846;-80
2024/04/12 12:03:40;;;;;;;5.30;1.80;;;;;;;28.52;25.67;101299.82;106114;1254;64749;-82
2024/04/12 12:06:07;;;;;;;9.60;2.00;;;;;;;28.38;26.07;101299.28;108475;1249;73680;-78
2024/04/12 12:08:41;;;;;;;8.70;2.00;;;;;;;28.27;25.76;101299.89;109144;1250;61467;-80
2024/04/12 12:11:08;;;;;;;9.30;1.40;;;;;;;28.13;25.42;101295.72;107054;1253;60233;-79
2024/04/12 12:13:36;;;;;;;4.80;1.80;;;;;;;28.01;25.81;101291.98;106496;1251;75015;-81
2024/04/12 12:16:05;;;;;;;4.60;1.80;;;;;;;27.92;25.93;101284.49;106093;1253;64900;-81
2024/04/12 12:18:36;;;;;;;7.20;1.30;;;;;;;27.80;25.78;101279.98;106139;1252;73891;-83
2024/04/12 12:21:04;;;;;;;4.60;1.30;;;;;;;27.58;25.75;101278.66;106153;1253;61576;-81
2024/04/12 12:23:31;;;;;;;3.30;1.60;;;;;;;27.36;26.15;101276.93;106071;1251;61716;-81
2024/04/12 12:25:58;;;;;;;3.50;1.10;;;;;;;27.21;26.12;101278.17;106074;1252;74804;-82
2024/04/12 12:28:26;;;;;;;6.30;1.80;;;;;;;27.13;25.92;101276.45;106066;1254;64896;-84
2024/04/12 12:31:33;;;;;;;6.00;1.10;;;;;;;26.91;25.91;101271.54;106125;1252;73646;-83
2024/04/12 12:34:04;;;;;;;5.60;1.20;;;;;;;26.66;26.51;101275.31;106020;1254;60486;-84
2024/04/12 12:36:33;;;;;;;4.30;1.50;;;;;;;26.48;26.14;101276.27;106213;1252;61876;-81
2024/04/12 12:39:00;;;;;;;7.60;1.30;;;;;;;26.32;26.08;101274.41;106169;1254;74836;-82
2024/04/12 12:41:30;;;;;;;7.80;1.50;;;;;;;26.16;26.32;101274.84;106262;1253;65040;-83
2024/04/12 12:44:00;;;;;;;5.80;1.50;;;;;;;26.04;26.74;101276.18;106222;1252;73897;-81
2024/04/12 12:46:27;;;;;;;4.10;1.30;;;;;;;25.98;26.74;101273.88;106202;1254;61222;-81
2024/04/12 12:48:55;;;;;;;8.10;1.50;;;;;;;25.89;26.78;101271.86;106051;1249;61716;-82